This is the latest recevied weather packets stored in our database for station/object BMCB-2. If no packets are shown the sender has not sent any weather packets the latest 10 day(s).
| Time | Temp. | Humidity | Pressure | Rain* | Wind** | Luminosity | Snow |
|---|---|---|---|---|---|---|---|
| 1777909269 | 13.89° C | 92% | 1014 hPa | 0.25 mm | - | 180 W/m² | - |
| 1777908661 | 14.44° C | 93% | 1013.9 hPa | 0.25 mm | - | 190 W/m² | - |
| 1777908064 | 14.44° C | 93% | 1013.8 hPa | 0.51 mm | - | 174 W/m² | - |
| 1777905658 | 14.44° C | 93% | 1014.1 hPa | 0.25 mm | - | 250 W/m² | - |
| 1777905061 | 14.44° C | 92% | 1014.2 hPa | 0.25 mm | - | 236 W/m² | - |
| 1777900259 | 15° C | 88% | 1014.6 hPa | 0 mm | - | 156 W/m² | - |
| 1777896660 | 15° C | 87% | 1014.7 hPa | 0 mm | - | 172 W/m² | - |
| 1777894261 | 14.44° C | 89% | 1015 hPa | 0 mm | - | 208 W/m² | - |
| 1777893662 | 14.44° C | 90% | 1015.1 hPa | 0 mm | - | 220 W/m² | - |
| 1777891258 | 13.89° C | 92% | 1015.5 hPa | 0 mm | - | 222 W/m² | - |
| 1777890059 | 13.89° C | 93% | 1015.6 hPa | 0 mm | - | 142 W/m² | - |
| 1777887659 | 13.33° C | 97% | 1015.9 hPa | 0 mm | - | 154 W/m² | - |
| 1777868454 | 10° C | 10% | 1014.4 hPa | 0 mm | - | - | - |
| 1777866057 | 9.44° C | 99% | 1014.1 hPa | 0 mm | - | 0 W/m² | - |
| 1777862455 | 10.56° C | 97% | 1014.2 hPa | 0 mm | - | 0 W/m² | - |
| 1777858258 | 11.11° C | 96% | 1013.8 hPa | 0 mm | - | 0 W/m² | - |
| 1777857059 | 11.11° C | 96% | 1014 hPa | 0 mm | - | 0 W/m² | - |
| 1777852268 | 11.67° C | 97% | 1014.2 hPa | 0 mm | - | 0 W/m² | - |
| 1777851667 | 11.67° C | 97% | 1014.2 hPa | 0 mm | - | 0 W/m² | - |
| 1777846868 | 11.11° C | 98% | 1014.3 hPa | 0 mm | - | 0 W/m² | - |
| 1777846270 | 11.11° C | 97% | 1014.4 hPa | 0 mm | - | 0 W/m² | - |
| 1777840872 | 12.78° C | 97% | 1014.2 hPa | 0 mm | - | 0 W/m² | - |
| 1777835463 | 13.33° C | 94% | 1013.9 hPa | 0 mm | - | 0 W/m² | - |
| 1777833664 | 13.33° C | 93% | 1013.6 hPa | 0 mm | - | 6 W/m² | - |
| 1777832468 | 13.33° C | 93% | 1013.6 hPa | 0 mm | - | 8 W/m² | - |
* Rain latest hour (hover to see other rain measurements)
** Current wind speed in m/s (hover to see current wind gust speed)